Time;durP1;ratioP1;P1;durP2;ratioP2;P2;SDS_P1;SDS_P2;PMS_P1;PMS_P2;Temp;Humidity;BMP_temperature;BMP_pressure;BME280_temperature;BME280_humidity;BME280_pressure;Samples;Min_cycle;Max_cycle;Signal;HPM_P1;HPM_P2
2022/09/10 00:01:52;;;;;;;;;;;25.20;49.50;24.00;100548.00;;;;5101159;27;19912;-71
2022/09/10 00:04:38;;;;;;;;;;;25.30;49.50;24.00;100551.00;;;;5100465;27;20376;-71
2022/09/10 00:07:24;;;;;;;;;;;25.20;49.50;24.00;100551.00;;;;5098325;27;19912;-71
2022/09/10 00:10:10;;;;;;;;;;;25.20;49.50;24.00;100548.00;;;;5098079;27;19919;-70
2022/09/10 00:12:57;;;;;;;;;;;25.20;49.50;24.00;100546.00;;;;5092931;28;20277;-71
2022/09/10 00:15:48;;;;;;;;;;;25.20;49.50;24.00;100543.00;;;;5094254;28;19920;-70
2022/09/10 00:18:34;;;;;;;;;;;25.20;49.50;24.00;100545.00;;;;5086435;27;20391;-70
2022/09/10 00:21:20;;;;;;;;;;;25.10;49.40;24.00;100550.00;;;;5097758;28;20284;-70
2022/09/10 00:24:06;;;;;;;;;;;25.20;49.50;24.00;100545.00;;;;5102124;28;19911;-71
2022/09/10 00:26:52;;;;;;;;;;;25.20;49.50;24.00;100549.00;;;;5096631;28;19912;-70
2022/09/10 00:29:38;;;;;;;;;;;25.20;49.50;24.00;100545.00;;;;5099496;28;19916;-70
2022/09/10 00:32:24;;;;;;;;;;;25.20;49.50;24.00;100548.00;;;;5092774;28;19911;-70
2022/09/10 00:35:10;;;;;;;;;;;25.20;49.50;24.00;100540.00;;;;5100535;28;19915;-70
2022/09/10 00:37:56;;;;;;;;;;;25.20;49.50;24.00;100549.00;;;;5097098;28;19916;-70
2022/09/10 00:40:42;;;;;;;;;;;25.20;49.50;24.00;100556.00;;;;5090430;28;19935;-70
2022/09/10 00:43:29;;;;;;;;;;;25.20;49.50;24.00;100552.00;;;;5099192;28;19920;-70
2022/09/10 00:46:34;;;;;;;;;;;25.20;49.50;24.00;100545.00;;;;5103743;28;19916;-70
2022/09/10 00:49:22;;;;;;;;;;;25.20;49.50;24.00;100556.00;;;;5088956;28;19912;-70
2022/09/10 00:52:08;;;;;;;;;;;25.20;49.50;24.00;100560.00;;;;5095551;28;19920;-71
2022/09/10 00:54:54;;;;;;;;;;;25.20;49.50;24.00;100563.00;;;;5093196;28;19970;-70
2022/09/10 00:57:40;;;;;;;;;;;25.20;49.50;24.00;100562.00;;;;5096388;28;19913;-71
2022/09/10 01:00:26;;;;;;;;;;;25.20;49.50;24.00;100569.00;;;;5091587;28;19912;-70
2022/09/10 01:03:14;;;;;;;;;;;25.20;49.50;24.00;100573.00;;;;5099107;28;19923;-70
2022/09/10 01:06:02;;;;;;;;;;;25.20;49.50;24.00;100558.00;;;;5096704;28;19946;-71
2022/09/10 01:08:48;;;;;;;;;;;25.10;49.40;24.00;100565.00;;;;5078008;28;20050;-70
2022/09/10 01:11:55;;;;;;;;;;;25.20;49.50;24.00;100565.00;;;;5104199;28;19915;-71
2022/09/10 01:14:53;;;;;;;;;;;25.20;49.50;24.00;100561.00;;;;5092916;28;19916;-71
2022/09/10 01:17:51;;;;;;;;;;;25.20;49.50;24.00;100563.00;;;;5098969;28;20006;-70
2022/09/10 01:21:01;;;;;;;;;;;25.20;49.50;24.00;100574.00;;;;5097737;28;20000;-70
2022/09/10 01:24:15;;;;;;;;;;;25.20;49.50;24.00;100572.00;;;;5095934;28;19911;-70
2022/09/10 01:27:36;;;;;;;;;;;25.20;49.50;24.00;100565.00;;;;5103138;28;19912;-70
2022/09/10 01:30:50;;;;;;;;;;;25.20;49.50;24.00;100567.00;;;;5093786;27;19918;-70
2022/09/10 01:33:50;;;;;;;;;;;25.20;49.50;24.00;100574.00;;;;5113155;27;19970;-70
2022/09/10 01:36:37;;;;;;;;;;;25.20;49.50;24.00;100572.00;;;;5091932;27;19920;-70
2022/09/10 01:39:23;;;;;;;;;;;25.20;49.50;24.00;100571.00;;;;5090933;27;19994;-71
2022/09/10 01:42:09;;;;;;;;;;;25.20;49.50;24.00;100576.00;;;;5084771;27;19916;-70
2022/09/10 01:44:59;;;;;;;;;;;25.20;49.50;24.00;100578.00;;;;5105133;27;20432;-70
2022/09/10 01:48:06;;;;;;;;;;;25.20;50.20;24.00;100579.00;;;;5098644;27;19919;-70
2022/09/10 01:51:23;;;;;;;;;;;25.10;49.40;24.00;100579.00;;;;5106284;27;19916;-70
2022/09/10 01:54:35;;;;;;;;;;;25.20;49.50;24.00;100578.00;;;;5104959;27;20361;-70
2022/09/10 01:57:38;;;;;;;;;;;25.20;49.50;23.90;100575.00;;;;5118029;27;19926;-70
2022/09/10 02:00:25;;;;;;;;;;;25.10;49.50;23.90;100572.00;;;;5087624;27;20258;-71
2022/09/10 02:03:15;;;;;;;;;;;25.10;49.40;24.00;100573.00;;;;5109089;27;19916;-71
2022/09/10 02:06:01;;;;;;;;;;;25.20;49.50;24.00;100576.00;;;;5077285;28;19919;-70
2022/09/10 02:08:48;;;;;;;;;;;25.20;49.60;24.00;100572.00;;;;5096606;28;19912;-70
2022/09/10 02:11:51;;;;;;;;;;;25.20;49.50;23.90;100575.00;;;;5092761;28;19919;-71
2022/09/10 02:14:36;;;;;;;;;;;25.20;49.50;24.00;100576.00;;;;5071363;27;19919;-70
2022/09/10 02:17:33;;;;;;;;;;;25.20;49.50;24.00;100571.00;;;;5110782;27;19958;-71
2022/09/10 02:20:19;;;;;;;;;;;25.20;49.50;23.90;100576.00;;;;5088374;27;19966;-70
2022/09/10 02:23:05;;;;;;;;;;;25.20;49.50;23.90;100579.00;;;;5071190;28;19914;-70
2022/09/10 02:25:51;;;;;;;;;;;25.20;49.50;24.00;100580.00;;;;5078152;28;19912;-71
2022/09/10 02:28:37;;;;;;;;;;;25.10;49.50;24.00;100578.00;;;;5101415;28;19923;-70
2022/09/10 02:31:22;;;;;;;;;;;25.20;49.50;24.00;100576.00;;;;5110881;27;19916;-70
2022/09/10 02:34:09;;;;;;;;;;;25.20;49.60;24.00;100577.00;;;;5099402;28;19977;-70
2022/09/10 02:36:56;;;;;;;;;;;25.20;49.60;24.00;100577.00;;;;5102433;28;19912;-70
2022/09/10 02:39:43;;;;;;;;;;;25.20;49.60;23.90;100580.00;;;;5100469;28;20002;-70
2022/09/10 02:42:29;;;;;;;;;;;25.20;49.50;23.90;100579.00;;;;5096481;28;20497;-70
2022/09/10 02:45:15;;;;;;;;;;;25.20;49.60;23.90;100587.00;;;;5102356;28;19911;-70
2022/09/10 02:48:03;;;;;;;;;;;25.30;49.70;23.90;100581.00;;;;5097308;28;19912;-70
2022/09/10 02:50:49;;;;;;;;;;;25.20;49.60;24.00;100586.00;;;;5097273;28;19912;-70
2022/09/10 02:53:35;;;;;;;;;;;25.20;49.60;23.90;100573.00;;;;5097253;28;20247;-70
2022/09/10 02:56:22;;;;;;;;;;;25.10;49.50;23.90;100579.00;;;;5097103;28;20604;-71
2022/09/10 02:59:08;;;;;;;;;;;25.20;49.70;23.90;100574.00;;;;5099324;27;20315;-70
2022/09/10 03:01:55;;;;;;;;;;;25.20;49.60;23.90;100574.00;;;;5100089;27;19923;-71
2022/09/10 03:04:41;;;;;;;;;;;25.20;49.60;23.90;100576.00;;;;5104465;27;19915;-71
2022/09/10 03:07:27;;;;;;;;;;;25.10;49.50;23.90;100565.00;;;;5101892;27;19919;-71
2022/09/10 03:10:13;;;;;;;;;;;25.20;50.30;23.90;100571.00;;;;5100837;27;19923;-70
2022/09/10 03:12:59;;;;;;;;;;;25.20;49.60;23.90;100570.00;;;;5101882;27;19915;-71
2022/09/10 03:15:45;;;;;;;;;;;25.20;49.60;23.90;100568.00;;;;5081525;27;20232;-71
2022/09/10 03:18:31;;;;;;;;;;;25.10;49.60;23.90;100573.00;;;;5102254;27;19916;-70
2022/09/10 03:21:19;;;;;;;;;;;25.20;49.60;23.90;100571.00;;;;5099792;27;19922;-70
2022/09/10 03:24:05;;;;;;;;;;;25.20;49.60;23.90;100572.00;;;;5100256;27;19938;-71
2022/09/10 03:26:50;;;;;;;;;;;25.10;49.50;23.90;100577.00;;;;5096400;27;20199;-71
2022/09/10 03:29:36;;;;;;;;;;;25.20;49.60;23.90;100577.00;;;;5097598;27;19965;-70
2022/09/10 03:32:22;;;;;;;;;;;25.10;49.60;23.90;100582.00;;;;5090407;27;19920;-70
2022/09/10 03:35:09;;;;;;;;;;;25.00;49.60;23.90;100588.00;;;;5099764;27;19926;-71
2022/09/10 03:37:55;;;;;;;;;;;25.10;49.60;23.90;100576.00;;;;5098625;27;19965;-70
2022/09/10 03:40:41;;;;;;;;;;;25.20;50.30;23.90;100581.00;;;;5099504;27;19911;-70
2022/09/10 03:43:27;;;;;;;;;;;25.10;49.60;23.90;100583.00;;;;5084386;27;19912;-71
2022/09/10 03:46:13;;;;;;;;;;;25.00;49.50;23.90;100587.00;;;;5104693;27;19918;-70
2022/09/10 03:49:02;;;;;;;;;;;25.10;49.60;23.90;100581.00;;;;5096656;27;20277;-71
2022/09/10 03:51:48;;;;;;;;;;;25.10;49.60;23.90;100578.00;;;;5095585;27;19920;-71
2022/09/10 03:54:34;;;;;;;;;;;25.10;49.60;23.90;100587.00;;;;5096979;27;19915;-70
2022/09/10 03:57:21;;;;;;;;;;;25.10;49.60;23.90;100582.00;;;;5101655;27;20246;-71
2022/09/10 04:00:10;;;;;;;;;;;25.10;49.70;23.90;100579.00;;;;5093934;27;20442;-70
2022/09/10 04:02:57;;;;;;;;;;;25.10;49.60;23.90;100594.00;;;;5083407;28;19920;-70
2022/09/10 04:05:43;;;;;;;;;;;25.10;49.60;23.90;100587.00;;;;5097966;27;19920;-71
2022/09/10 04:08:29;;;;;;;;;;;25.10;49.60;23.90;100575.00;;;;5097580;27;19919;-70
2022/09/10 04:11:15;;;;;;;;;;;25.10;49.60;23.90;100574.00;;;;5103014;27;19915;-70
2022/09/10 04:14:01;;;;;;;;;;;25.00;49.60;23.90;100581.00;;;;5095285;27;19919;-70
2022/09/10 04:16:47;;;;;;;;;;;25.10;49.70;23.90;100578.00;;;;5099091;27;20308;-71
2022/09/10 04:19:33;;;;;;;;;;;25.10;49.70;23.90;100576.00;;;;5100080;28;20068;-71
2022/09/10 04:22:19;;;;;;;;;;;25.10;49.70;23.90;100577.00;;;;5088960;28;20404;-71
2022/09/10 04:25:05;;;;;;;;;;;25.10;49.60;23.90;100581.00;;;;5084184;28;19927;-70
2022/09/10 04:27:51;;;;;;;;;;;25.10;49.70;23.90;100586.00;;;;5091639;28;19912;-70
2022/09/10 04:30:39;;;;;;;;;;;25.10;49.70;23.90;100578.00;;;;5098025;28;20396;-70
2022/09/10 04:33:25;;;;;;;;;;;25.10;49.70;23.90;100578.00;;;;5093080;28;19916;-71
2022/09/10 04:36:11;;;;;;;;;;;25.10;49.70;23.90;100581.00;;;;5096160;28;19920;-70
2022/09/10 04:38:58;;;;;;;;;;;25.10;49.70;23.90;100581.00;;;;5086785;28;19930;-71
2022/09/10 04:41:44;;;;;;;;;;;25.10;49.70;23.90;100592.00;;;;5095222;28;20045;-71
2022/09/10 04:44:31;;;;;;;;;;;25.00;49.60;23.90;100588.00;;;;5087731;28;19915;-71
2022/09/10 04:47:17;;;;;;;;;;;25.20;49.80;23.90;100599.00;;;;5097527;28;19927;-71
2022/09/10 04:50:05;;;;;;;;;;;25.10;49.70;23.90;100597.00;;;;5101690;28;19915;-71
2022/09/10 04:52:51;;;;;;;;;;;25.10;49.70;23.90;100598.00;;;;5095218;28;19923;-70
2022/09/10 04:55:38;;;;;;;;;;;25.00;49.60;23.90;100606.00;;;;5085462;28;19919;-70
2022/09/10 04:58:25;;;;;;;;;;;25.10;49.70;23.90;100605.00;;;;5108706;28;20367;-71
2022/09/10 05:01:11;;;;;;;;;;;25.10;49.70;23.90;100606.00;;;;5095670;28;20211;-70
2022/09/10 05:03:57;;;;;;;;;;;25.10;49.70;23.90;100612.00;;;;5080409;28;19912;-71
2022/09/10 05:06:43;;;;;;;;;;;25.10;49.70;23.90;100599.00;;;;5096902;28;19912;-70
2022/09/10 05:09:30;;;;;;;;;;;25.00;49.60;23.90;100609.00;;;;5102146;27;20517;-70
2022/09/10 05:12:18;;;;;;;;;;;25.10;49.70;23.90;100597.00;;;;5107026;27;20405;-70
2022/09/10 05:15:05;;;;;;;;;;;25.00;49.60;23.90;100594.00;;;;5101778;27;19916;-70
2022/09/10 05:17:52;;;;;;;;;;;25.10;49.70;23.90;100595.00;;;;5103765;27;19919;-71
2022/09/10 05:20:38;;;;;;;;;;;25.10;49.70;23.90;100601.00;;;;5104327;27;19976;-71
2022/09/10 05:23:25;;;;;;;;;;;25.10;49.70;23.90;100597.00;;;;5097224;28;19993;-70
2022/09/10 05:26:11;;;;;;;;;;;25.00;49.60;23.90;100601.00;;;;5103568;27;20372;-70
2022/09/10 05:28:58;;;;;;;;;;;25.10;49.70;23.90;100599.00;;;;5096450;28;19927;-71
2022/09/10 05:31:44;;;;;;;;;;;25.10;49.70;23.90;100602.00;;;;5094467;27;19958;-71
2022/09/10 05:34:30;;;;;;;;;;;25.10;49.70;23.90;100605.00;;;;5099814;27;19915;-71
2022/09/10 05:37:17;;;;;;;;;;;25.10;49.70;23.90;100610.00;;;;5099159;27;19912;-70
2022/09/10 05:40:05;;;;;;;;;;;25.20;49.70;23.90;100610.00;;;;5088978;28;19976;-71
2022/09/10 05:42:52;;;;;;;;;;;25.00;49.60;23.90;100612.00;;;;5102613;27;19933;-70
2022/09/10 05:45:38;;;;;;;;;;;25.10;49.70;23.90;100607.00;;;;5101018;27;19955;-71
2022/09/10 05:48:24;;;;;;;;;;;25.10;49.70;23.90;100617.00;;;;5094599;27;19920;-70
2022/09/10 05:51:10;;;;;;;;;;;25.10;49.70;23.90;100612.00;;;;5082599;28;19912;-71
2022/09/10 05:53:56;;;;;;;;;;;25.10;49.70;23.90;100617.00;;;;5084717;28;20018;-71
2022/09/10 05:56:42;;;;;;;;;;;25.10;49.70;23.90;100617.00;;;;5105582;27;19915;-70
2022/09/10 05:59:28;;;;;;;;;;;25.10;49.70;23.90;100624.00;;;;5096612;27;19915;-71
2022/09/10 06:02:15;;;;;;;;;;;25.00;49.60;23.90;100629.00;;;;5102026;27;19919;-70
2022/09/10 06:05:01;;;;;;;;;;;25.10;49.70;23.90;100619.00;;;;5083378;28;19919;-70
2022/09/10 06:07:48;;;;;;;;;;;25.10;49.70;23.90;100628.00;;;;5096676;27;19927;-70
2022/09/10 06:10:34;;;;;;;;;;;25.10;49.70;23.90;100626.00;;;;5099569;27;20316;-70
2022/09/10 06:13:20;;;;;;;;;;;25.00;49.60;23.80;100628.00;;;;5097552;27;19911;-70
2022/09/10 06:16:06;;;;;;;;;;;25.10;49.70;23.90;100632.00;;;;5094398;27;19924;-70
2022/09/10 06:18:53;;;;;;;;;;;25.10;49.70;23.90;100630.00;;;;5096242;28;19911;-70
2022/09/10 06:21:39;;;;;;;;;;;25.00;49.60;23.90;100635.00;;;;5100393;27;19916;-70
2022/09/10 06:24:25;;;;;;;;;;;25.10;49.70;23.90;100639.00;;;;5098695;28;19911;-71
2022/09/10 06:27:11;;;;;;;;;;;25.20;49.80;23.90;100633.00;;;;5103777;27;19977;-70
2022/09/10 06:29:56;;;;;;;;;;;25.10;49.70;23.90;100630.00;;;;5094188;28;19916;-70
2022/09/10 06:32:42;;;;;;;;;;;25.10;49.70;23.90;100639.00;;;;5097016;27;19916;-70
2022/09/10 06:35:29;;;;;;;;;;;25.00;49.60;23.80;100637.00;;;;5103856;27;20246;-70
2022/09/10 06:38:15;;;;;;;;;;;25.10;49.70;23.90;100639.00;;;;5100466;27;20200;-70
2022/09/10 06:41:03;;;;;;;;;;;25.10;49.70;23.80;100641.00;;;;5102231;27;19911;-71
2022/09/10 06:43:49;;;;;;;;;;;25.10;49.70;23.90;100641.00;;;;5093275;27;19912;-70
2022/09/10 06:46:35;;;;;;;;;;;25.10;49.70;23.90;100642.00;;;;5102896;27;19959;-70
2022/09/10 06:49:22;;;;;;;;;;;25.10;49.70;23.90;100650.00;;;;5102911;27;20375;-70
2022/09/10 06:52:10;;;;;;;;;;;25.10;49.70;23.80;100644.00;;;;5096287;27;20014;-70
2022/09/10 06:54:56;;;;;;;;;;;25.10;49.70;23.80;100644.00;;;;5102182;27;19920;-71
2022/09/10 06:57:42;;;;;;;;;;;25.20;49.70;23.80;100645.00;;;;5098257;27;19919;-71
2022/09/10 07:00:30;;;;;;;;;;;25.00;49.60;23.80;100650.00;;;;5092648;28;20356;-71
2022/09/10 07:03:18;;;;;;;;;;;25.10;49.70;23.80;100644.00;;;;5097435;27;19916;-71
2022/09/10 07:06:05;;;;;;;;;;;25.10;49.60;23.70;100641.00;;;;5100438;27;19999;-71
2022/09/10 07:08:55;;;;;;;;;;;25.10;49.60;23.70;100645.00;;;;5097490;27;19916;-71
2022/09/10 07:11:41;;;;;;;;;;;25.00;49.60;23.70;100645.00;;;;5095038;27;19998;-71
2022/09/10 07:14:27;;;;;;;;;;;25.00;49.50;23.60;100651.00;;;;5100862;27;19920;-71
2022/09/10 07:17:13;;;;;;;;;;;25.00;49.50;23.60;100647.00;;;;5097970;27;19950;-71
2022/09/10 07:19:59;;;;;;;;;;;25.00;49.60;23.60;100648.00;;;;5096224;27;20519;-71
2022/09/10 07:22:45;;;;;;;;;;;25.00;49.60;23.50;100655.00;;;;5097825;27;20011;-71
2022/09/10 07:25:32;;;;;;;;;;;25.00;49.60;23.50;100655.00;;;;5094732;27;19911;-71
2022/09/10 07:28:18;;;;;;;;;;;24.90;49.60;23.50;100658.00;;;;5101566;27;20261;-71
2022/09/10 07:31:19;;;;;;;;;;;24.90;49.70;23.50;100658.00;;;;5098290;27;19989;-71
2022/09/10 07:34:05;;;;;;;;;;;24.80;49.70;23.40;100656.00;;;;5102144;27;19919;-70
2022/09/10 07:36:51;;;;;;;;;;;24.80;49.70;23.40;100653.00;;;;5097059;28;19924;-71
2022/09/10 07:39:37;;;;;;;;;;;24.80;49.80;23.40;100658.00;;;;5098570;27;19915;-71
2022/09/10 07:42:24;;;;;;;;;;;24.80;49.90;23.40;100661.00;;;;5104245;27;20403;-70
2022/09/10 07:45:14;;;;;;;;;;;24.80;49.90;23.40;100663.00;;;;5098028;27;19949;-70
2022/09/10 07:48:01;;;;;;;;;;;24.80;49.90;23.50;100659.00;;;;5085887;27;19939;-71
2022/09/10 07:50:47;;;;;;;;;;;24.80;50.00;23.50;100659.00;;;;5087681;28;19927;-71
2022/09/10 07:53:33;;;;;;;;;;;24.80;50.00;23.50;100663.00;;;;5093482;28;19915;-72
2022/09/10 07:56:19;;;;;;;;;;;24.80;50.00;23.50;100659.00;;;;5108072;27;20396;-71
2022/09/10 07:59:05;;;;;;;;;;;24.80;50.00;23.50;100656.00;;;;5098796;27;20273;-70
2022/09/10 08:01:51;;;;;;;;;;;24.80;50.10;23.60;100661.00;;;;5096573;28;19920;-71
2022/09/10 08:04:38;;;;;;;;;;;24.80;50.10;23.60;100663.00;;;;5092668;28;19916;-71
2022/09/10 08:07:24;;;;;;;;;;;24.80;50.10;23.60;100667.00;;;;5096551;28;20419;-71
2022/09/10 08:10:10;;;;;;;;;;;24.90;50.20;23.60;100670.00;;;;5098222;27;20444;-70
2022/09/10 08:12:57;;;;;;;;;;;24.80;50.10;23.60;100672.00;;;;5094383;28;19934;-70
2022/09/10 08:15:43;;;;;;;;;;;24.80;50.10;23.60;100670.00;;;;5096691;28;19931;-70
2022/09/10 08:18:29;;;;;;;;;;;24.80;50.10;23.70;100680.00;;;;5084399;28;20122;-70
2022/09/10 08:21:16;;;;;;;;;;;24.90;50.10;23.70;100684.00;;;;5100558;27;19920;-70
2022/09/10 08:24:07;;;;;;;;;;;24.90;50.10;23.70;100683.00;;;;5100437;28;19933;-78
2022/09/10 08:26:53;;;;;;;;;;;24.90;50.10;23.70;100694.00;;;;5095067;28;19919;-71
2022/09/10 08:29:39;;;;;;;;;;;24.90;50.10;23.70;100693.00;;;;5104609;27;19911;-70
2022/09/10 08:32:26;;;;;;;;;;;24.90;50.10;23.70;100696.00;;;;5091704;28;19915;-71
2022/09/10 08:35:13;;;;;;;;;;;24.90;50.10;23.70;100697.00;;;;5097990;28;20281;-74
2022/09/10 08:37:59;;;;;;;;;;;24.90;50.00;23.70;100697.00;;;;5099872;28;20031;-70
2022/09/10 08:40:45;;;;;;;;;;;25.00;50.10;23.70;100705.00;;;;5113863;27;19927;-73
2022/09/10 08:43:39;;;;;;;;;;;25.00;50.10;23.70;100699.00;;;;5079531;28;19916;-70
2022/09/10 08:46:28;;;;;;;;;;;25.00;50.10;23.70;100696.00;;;;5086732;27;19915;-70
2022/09/10 08:49:36;;;;;;;;;;;25.00;50.10;23.70;100707.00;;;;5092225;28;19915;-73
2022/09/10 08:52:34;;;;;;;;;;;25.00;50.10;23.70;100719.00;;;;5102359;27;19912;-70
2022/09/10 08:55:19;;;;;;;;;;;25.00;50.00;23.70;100715.00;;;;5106719;27;20378;-69
2022/09/10 08:58:14;;;;;;;;;;;25.00;50.00;23.70;100717.00;;;;5091908;27;20007;-69
2022/09/10 09:01:01;;;;;;;;;;;25.00;50.00;23.70;100724.00;;;;5107180;27;19911;-69
2022/09/10 09:03:47;;;;;;;;;;;25.00;50.00;23.70;100723.00;;;;5108184;27;19922;-69
2022/09/10 09:06:49;;;;;;;;;;;25.00;50.00;23.70;100724.00;;;;5111474;27;19915;-69
2022/09/10 09:09:35;;;;;;;;;;;25.00;50.00;23.70;100726.00;;;;5119371;27;20018;-70
2022/09/10 09:12:44;;;;;;;;;;;24.90;50.00;23.70;100727.00;;;;5105640;27;19957;-70
2022/09/10 09:15:50;;;;;;;;;;;25.00;50.00;23.70;100729.00;;;;5105155;28;19915;-69
2022/09/10 09:18:59;;;;;;;;;;;25.00;50.00;23.70;100722.00;;;;5115509;27;19954;-70
2022/09/10 09:21:51;;;;;;;;;;;25.00;50.00;23.70;100727.00;;;;5081714;27;19938;-70
2022/09/10 09:24:49;;;;;;;;;;;25.00;50.10;23.70;100720.00;;;;5105680;27;19955;-69
2022/09/10 09:27:35;;;;;;;;;;;25.00;50.00;23.70;100727.00;;;;5082224;27;20383;-70
2022/09/10 09:30:30;;;;;;;;;;;25.00;50.00;23.70;100723.00;;;;5083608;27;19921;-70
2022/09/10 09:33:19;;;;;;;;;;;25.00;50.00;23.70;100718.00;;;;5103043;27;19916;-70
2022/09/10 09:36:06;;;;;;;;;;;25.00;50.00;23.70;100720.00;;;;5111754;27;19915;-70
2022/09/10 09:38:52;;;;;;;;;;;25.00;50.00;23.80;100720.00;;;;5091401;28;19926;-70
2022/09/10 09:42:01;;;;;;;;;;;25.00;50.00;23.80;100721.00;;;;5108989;27;19915;-70
2022/09/10 09:45:06;;;;;;;;;;;25.00;50.00;23.80;100726.00;;;;5079793;27;19991;-70
2022/09/10 09:47:53;;;;;;;;;;;25.00;50.00;23.80;100722.00;;;;5106190;27;19934;-69
2022/09/10 09:50:40;;;;;;;;;;;25.00;50.00;23.80;100722.00;;;;5103195;27;19947;-69
2022/09/10 09:53:27;;;;;;;;;;;25.00;50.00;23.80;100726.00;;;;5091363;27;20357;-69
2022/09/10 09:56:26;;;;;;;;;;;25.00;50.00;23.80;100721.00;;;;5105599;27;20038;-69
2022/09/10 09:59:29;;;;;;;;;;;25.00;50.00;23.80;100723.00;;;;5096702;28;19919;-68
2022/09/10 10:02:19;;;;;;;;;;;25.00;50.00;23.80;100724.00;;;;5094840;27;19918;-70
2022/09/10 10:05:27;;;;;;;;;;;25.00;50.10;23.80;100722.00;;;;5089605;27;19912;-76
2022/09/10 10:08:33;;;;;;;;;;;25.00;50.00;23.80;100723.00;;;;5088666;28;19911;-72
2022/09/10 10:11:19;;;;;;;;;;;25.10;50.00;23.80;100723.00;;;;5104047;27;20312;-71
2022/09/10 10:14:27;;;;;;;;;;;25.00;50.00;23.80;100721.00;;;;5101047;27;19934;-70
2022/09/10 10:17:39;;;;;;;;;;;25.10;50.00;23.80;100721.00;;;;5086876;28;19943;-70
2022/09/10 10:20:34;;;;;;;;;;;25.10;50.00;23.80;100717.00;;;;5079916;28;19990;-73
2022/09/10 10:23:41;;;;;;;;;;;25.10;50.00;23.80;100717.00;;;;5088663;27;20011;-70
2022/09/10 10:26:31;;;;;;;;;;;25.10;50.00;23.80;100713.00;;;;5092486;27;20029;-71
2022/09/10 10:29:18;;;;;;;;;;;25.10;50.00;23.90;100711.00;;;;5084341;28;19923;-70
2022/09/10 10:32:04;;;;;;;;;;;25.20;50.00;23.90;100717.00;;;;5077091;28;19922;-70
2022/09/10 10:35:28;;;;;;;;;;;25.10;50.00;23.90;100710.00;;;;5088585;28;20292;-70
2022/09/10 10:38:14;;;;;;;;;;;25.10;50.00;23.90;100708.00;;;;5099991;27;19920;-70
2022/09/10 10:41:29;;;;;;;;;;;25.20;50.00;23.90;100709.00;;;;5101025;27;19912;-70
2022/09/10 10:44:34;;;;;;;;;;;25.10;49.90;23.90;100710.00;;;;5078075;28;19918;-70
2022/09/10 10:47:27;;;;;;;;;;;25.10;50.60;23.90;100711.00;;;;5084938;28;19923;-70
2022/09/10 10:50:24;;;;;;;;;;;25.10;50.00;23.90;100708.00;;;;5079204;28;19957;-70
2022/09/10 10:53:48;;;;;;;;;;;25.20;50.00;23.90;100712.00;;;;5098740;28;20348;-70
2022/09/10 10:56:40;;;;;;;;;;;25.10;49.90;23.90;100721.00;;;;5077770;28;20040;-70
2022/09/10 11:00:00;;;;;;;;;;;25.20;50.00;23.90;100721.00;;;;5085200;28;19919;-70
2022/09/10 11:03:17;;;;;;;;;;;25.10;49.90;23.90;100722.00;;;;5099779;28;19916;-70
2022/09/10 11:06:07;;;;;;;;;;;25.20;50.00;23.90;100720.00;;;;5094708;28;19912;-70
2022/09/10 11:08:58;;;;;;;;;;;25.20;50.00;23.90;100707.00;;;;5094454;28;20386;-70
2022/09/10 11:11:50;;;;;;;;;;;25.20;50.00;23.90;100710.00;;;;5098756;28;19916;-70
2022/09/10 11:14:44;;;;;;;;;;;25.20;49.90;23.90;100709.00;;;;5111010;27;19916;-70
2022/09/10 11:17:34;;;;;;;;;;;25.20;50.00;23.90;100708.00;;;;5098001;28;19926;-70
2022/09/10 11:20:23;;;;;;;;;;;25.20;49.90;23.90;100712.00;;;;5091569;28;19919;-71
2022/09/10 11:23:25;;;;;;;;;;;25.20;50.00;23.90;100712.00;;;;5077687;28;19923;-71
2022/09/10 11:26:20;;;;;;;;;;;25.20;50.00;23.90;100718.00;;;;5090997;27;19912;-71
2022/09/10 11:29:18;;;;;;;;;;;25.20;50.00;23.90;100715.00;;;;5086605;27;19926;-70
2022/09/10 11:32:05;;;;;;;;;;;25.20;50.00;23.90;100719.00;;;;5101374;27;20026;-70
2022/09/10 11:35:08;;;;;;;;;;;25.20;50.00;23.90;100720.00;;;;5102757;28;19939;-70
2022/09/10 11:38:12;;;;;;;;;;;25.20;50.00;23.90;100721.00;;;;5084710;27;19911;-70
2022/09/10 11:41:17;;;;;;;;;;;25.20;50.00;23.90;100728.00;;;;5091173;28;19965;-70
2022/09/10 11:44:13;;;;;;;;;;;25.20;50.00;23.90;100726.00;;;;5092496;28;20003;-70
2022/09/10 11:47:22;;;;;;;;;;;25.20;50.00;23.90;100719.00;;;;5091466;28;19919;-70
2022/09/10 11:50:21;;;;;;;;;;;25.20;50.00;23.90;100711.00;;;;5101832;27;19912;-70
2022/09/10 11:53:13;;;;;;;;;;;25.10;49.90;23.90;100717.00;;;;5086031;28;19956;-70
2022/09/10 11:56:14;;;;;;;;;;;25.10;49.90;23.90;100722.00;;;;5081723;28;19923;-70
2022/09/10 11:59:12;;;;;;;;;;;25.10;50.00;23.90;100717.00;;;;5106242;27;19918;-70
2022/09/10 12:02:20;;;;;;;;;;;25.10;50.00;23.90;100719.00;;;;5083737;28;19965;-70
2022/09/10 12:05:18;;;;;;;;;;;25.10;50.00;23.90;100713.00;;;;5096064;27;19963;-70
2022/09/10 12:08:35;;;;;;;;;;;25.10;50.00;23.90;100713.00;;;;5102895;27;20011;-70
2022/09/10 12:11:56;;;;;;;;;;;25.10;50.00;23.90;100723.00;;;;5102837;27;20247;-70
2022/09/10 12:14:42;;;;;;;;;;;25.10;50.00;23.90;100714.00;;;;5090253;27;20280;-70
2022/09/10 12:17:30;;;;;;;;;;;25.10;50.00;23.90;100720.00;;;;5087576;27;19911;-70
2022/09/10 12:20:18;;;;;;;;;;;25.10;50.00;23.90;100714.00;;;;5094598;28;19927;-70
2022/09/10 12:23:04;;;;;;;;;;;25.10;50.00;23.90;100709.00;;;;5078603;28;19922;-70
2022/09/10 12:25:58;;;;;;;;;;;25.10;50.00;23.90;100711.00;;;;5100992;28;19920;-70
2022/09/10 12:28:44;;;;;;;;;;;25.10;50.00;23.90;100709.00;;;;5087636;28;19911;-70
2022/09/10 12:32:09;;;;;;;;;;;25.20;50.10;23.90;100715.00;;;;5100117;28;19916;-70
2022/09/10 12:35:26;;;;;;;;;;;25.20;50.10;23.90;100718.00;;;;5107731;28;20362;-70
2022/09/10 12:38:53;;;;;;;;;;;25.20;50.10;23.90;100716.00;;;;5101703;28;19916;-70
2022/09/10 12:41:38;;;;;;;;;;;25.10;50.00;23.90;100717.00;;;;5078836;28;19955;-70
2022/09/10 12:44:33;;;;;;;;;;;25.20;50.10;23.90;100717.00;;;;5107846;28;19961;-70
2022/09/10 12:47:33;;;;;;;;;;;25.10;50.00;23.90;100715.00;;;;5099914;28;19923;-70
2022/09/10 12:50:49;;;;;;;;;;;25.20;50.10;23.90;100714.00;;;;5107617;28;19951;-70
2022/09/10 12:54:01;;;;;;;;;;;25.20;50.10;23.90;100710.00;;;;5086405;28;19919;-70
2022/09/10 12:57:25;;;;;;;;;;;25.20;50.10;23.90;100709.00;;;;5097888;28;20010;-70
2022/09/10 13:00:15;;;;;;;;;;;25.20;50.10;23.90;100714.00;;;;5101180;28;20388;-70
2022/09/10 13:03:10;;;;;;;;;;;25.20;50.10;23.90;100717.00;;;;5097053;28;19945;-70
2022/09/10 13:06:00;;;;;;;;;;;25.20;50.10;23.90;100711.00;;;;5105301;28;19911;-70
2022/09/10 13:08:46;;;;;;;;;;;25.20;50.10;23.90;100711.00;;;;5101522;28;19920;-70
2022/09/10 13:11:33;;;;;;;;;;;25.10;50.00;23.90;100711.00;;;;5088376;28;19915;-70
2022/09/10 13:14:25;;;;;;;;;;;25.20;50.10;23.90;100713.00;;;;5098071;28;19912;-70
2022/09/10 13:17:36;;;;;;;;;;;25.20;50.10;23.90;100711.00;;;;5101061;28;19919;-70
2022/09/10 13:20:25;;;;;;;;;;;25.20;50.10;23.90;100709.00;;;;5105099;27;19927;-70
2022/09/10 13:23:20;;;;;;;;;;;25.20;50.10;24.00;100713.00;;;;5101945;28;20011;-70
2022/09/10 13:26:28;;;;;;;;;;;25.20;50.10;24.00;100711.00;;;;5106096;27;19939;-70
2022/09/10 13:29:37;;;;;;;;;;;25.20;50.10;24.00;100718.00;;;;5097933;27;20433;-70
2022/09/10 13:32:33;;;;;;;;;;;25.20;50.10;24.00;100708.00;;;;5096880;27;19920;-70
2022/09/10 13:35:32;;;;;;;;;;;25.20;50.00;24.00;100713.00;;;;5101280;27;19939;-70
2022/09/10 13:38:55;;;;;;;;;;;25.30;50.20;24.00;100716.00;;;;5092006;27;19943;-70
2022/09/10 13:42:04;;;;;;;;;;;25.30;50.10;24.00;100712.00;;;;5091820;27;19927;-70
2022/09/10 13:45:18;;;;;;;;;;;25.30;50.10;24.00;100710.00;;;;5081526;27;19912;-70
2022/09/10 13:48:40;;;;;;;;;;;25.30;50.10;24.00;100717.00;;;;5089996;27;19920;-70
2022/09/10 13:51:40;;;;;;;;;;;25.30;50.10;24.00;100705.00;;;;5080974;27;20431;-70